sensor_id;sensor_type;location;lat;lon;timestamp;temperature;humidity
65836;SHT30;52595;51.608;7.216;2023-09-19T00:01:06;15.54;98.25
65836;SHT30;52595;51.608;7.216;2023-09-19T00:03:34;15.51;98.23
65836;SHT30;52595;51.608;7.216;2023-09-19T00:06:02;15.51;97.95
65836;SHT30;52595;51.608;7.216;2023-09-19T00:08:28;15.45;97.97
65836;SHT30;52595;51.608;7.216;2023-09-19T00:10:54;15.37;98.17
65836;SHT30;52595;51.608;7.216;2023-09-19T00:13:20;15.30;98.44
65836;SHT30;52595;51.608;7.216;2023-09-19T00:15:47;15.31;97.62
65836;SHT30;52595;51.608;7.216;2023-09-19T00:18:19;15.31;97.55
65836;SHT30;52595;51.608;7.216;2023-09-19T00:20:49;15.28;97.30
65836;SHT30;52595;51.608;7.216;2023-09-19T00:23:16;15.27;97.10
65836;SHT30;52595;51.608;7.216;2023-09-19T00:25:42;15.25;96.86
65836;SHT30;52595;51.608;7.216;2023-09-19T00:28:07;15.21;96.71
65836;SHT30;52595;51.608;7.216;2023-09-19T00:30:34;15.24;95.62
65836;SHT30;52595;51.608;7.216;2023-09-19T00:32:59;15.21;95.05
65836;SHT30;52595;51.608;7.216;2023-09-19T00:35:26;15.32;94.20
65836;SHT30;52595;51.608;7.216;2023-09-19T00:37:53;15.31;93.90
65836;SHT30;52595;51.608;7.216;2023-09-19T00:40:19;15.32;93.10
65836;SHT30;52595;51.608;7.216;2023-09-19T00:42:45;15.27;93.64
65836;SHT30;52595;51.608;7.216;2023-09-19T00:45:13;15.08;94.29
65836;SHT30;52595;51.608;7.216;2023-09-19T00:47:49;15.18;93.59
65836;SHT30;52595;51.608;7.216;2023-09-19T00:50:17;15.07;93.93
65836;SHT30;52595;51.608;7.216;2023-09-19T00:52:43;15.10;93.16
65836;SHT30;52595;51.608;7.216;2023-09-19T00:55:09;15.03;93.37
65836;SHT30;52595;51.608;7.216;2023-09-19T00:57:36;15.04;93.23
65836;SHT30;52595;51.608;7.216;2023-09-19T01:00:05;15.01;93.18
65836;SHT30;52595;51.608;7.216;2023-09-19T01:02:37;14.97;93.51
65836;SHT30;52595;51.608;7.216;2023-09-19T01:05:03;14.95;93.38
65836;SHT30;52595;51.608;7.216;2023-09-19T01:07:32;14.93;93.42
65836;SHT30;52595;51.608;7.216;2023-09-19T01:09:59;14.94;93.46
65836;SHT30;52595;51.608;7.216;2023-09-19T01:12:36;14.97;93.14
65836;SHT30;52595;51.608;7.216;2023-09-19T01:15:21;14.95;93.40
65836;SHT30;52595;51.608;7.216;2023-09-19T01:18:02;14.87;93.83
65836;SHT30;52595;51.608;7.216;2023-09-19T01:20:39;14.79;94.14
65836;SHT30;52595;51.608;7.216;2023-09-19T01:23:35;14.83;94.14
65836;SHT30;52595;51.608;7.216;2023-09-19T01:26:18;14.79;94.36
65836;SHT30;52595;51.608;7.216;2023-09-19T01:28:54;14.67;94.95
65836;SHT30;52595;51.608;7.216;2023-09-19T01:31:28;14.73;94.84
65836;SHT30;52595;51.608;7.216;2023-09-19T01:33:58;14.62;95.35
65836;SHT30;52595;51.608;7.216;2023-09-19T01:36:34;14.59;95.36
65836;SHT30;52595;51.608;7.216;2023-09-19T01:39:05;14.52;95.63
65836;SHT30;52595;51.608;7.216;2023-09-19T01:41:45;14.57;95.29
65836;SHT30;52595;51.608;7.216;2023-09-19T01:44:17;14.53;95.33
65836;SHT30;52595;51.608;7.216;2023-09-19T01:46:44;14.59;95.14
65836;SHT30;52595;51.608;7.216;2023-09-19T01:49:22;14.55;95.26
65836;SHT30;52595;51.608;7.216;2023-09-19T01:52:13;14.55;95.21
65836;SHT30;52595;51.608;7.216;2023-09-19T01:54:50;14.50;95.39
65836;SHT30;52595;51.608;7.216;2023-09-19T01:57:40;14.39;95.97
65836;SHT30;52595;51.608;7.216;2023-09-19T02:00:10;14.29;96.34
65836;SHT30;52595;51.608;7.216;2023-09-19T02:02:42;14.33;96.22
65836;SHT30;52595;51.608;7.216;2023-09-19T02:05:09;14.28;96.21
65836;SHT30;52595;51.608;7.216;2023-09-19T02:07:35;14.32;95.70
65836;SHT30;52595;51.608;7.216;2023-09-19T02:10:04;14.26;96.13
65836;SHT30;52595;51.608;7.216;2023-09-19T02:12:31;14.28;95.77
65836;SHT30;52595;51.608;7.216;2023-09-19T02:14:58;14.30;95.57
65836;SHT30;52595;51.608;7.216;2023-09-19T02:17:24;14.26;95.65
65836;SHT30;52595;51.608;7.216;2023-09-19T02:19:52;14.20;95.67
65836;SHT30;52595;51.608;7.216;2023-09-19T02:22:18;14.28;94.71
65836;SHT30;52595;51.608;7.216;2023-09-19T02:24:43;14.34;94.20
65836;SHT30;52595;51.608;7.216;2023-09-19T02:27:08;14.32;93.85
65836;SHT30;52595;51.608;7.216;2023-09-19T02:29:34;14.28;93.82
65836;SHT30;52595;51.608;7.216;2023-09-19T02:32:00;14.26;93.37
65836;SHT30;52595;51.608;7.216;2023-09-19T02:34:27;14.28;93.14
65836;SHT30;52595;51.608;7.216;2023-09-19T02:36:52;14.29;92.61
65836;SHT30;52595;51.608;7.216;2023-09-19T02:39:21;14.36;92.13
65836;SHT30;52595;51.608;7.216;2023-09-19T02:41:46;14.36;91.85
65836;SHT30;52595;51.608;7.216;2023-09-19T02:44:12;14.40;91.62
65836;SHT30;52595;51.608;7.216;2023-09-19T02:46:37;14.37;91.34
65836;SHT30;52595;51.608;7.216;2023-09-19T02:49:03;14.36;90.99
65836;SHT30;52595;51.608;7.216;2023-09-19T02:51:32;14.34;90.99
65836;SHT30;52595;51.608;7.216;2023-09-19T02:54:01;14.39;90.60
65836;SHT30;52595;51.608;7.216;2023-09-19T02:56:28;14.37;90.71
65836;SHT30;52595;51.608;7.216;2023-09-19T02:58:57;14.30;90.78
65836;SHT30;52595;51.608;7.216;2023-09-19T03:01:23;14.34;90.66
65836;SHT30;52595;51.608;7.216;2023-09-19T03:03:48;14.37;90.17
65836;SHT30;52595;51.608;7.216;2023-09-19T03:06:18;14.32;90.45
65836;SHT30;52595;51.608;7.216;2023-09-19T03:08:45;14.33;90.48
65836;SHT30;52595;51.608;7.216;2023-09-19T03:11:14;14.36;90.20
65836;SHT30;52595;51.608;7.216;2023-09-19T03:13:41;14.40;90.05
65836;SHT30;52595;51.608;7.216;2023-09-19T03:16:08;14.42;89.78
65836;SHT30;52595;51.608;7.216;2023-09-19T03:18:36;14.33;90.25
65836;SHT30;52595;51.608;7.216;2023-09-19T03:21:02;14.30;90.56
65836;SHT30;52595;51.608;7.216;2023-09-19T03:23:28;14.29;90.53
65836;SHT30;52595;51.608;7.216;2023-09-19T03:25:55;14.22;90.96
65836;SHT30;52595;51.608;7.216;2023-09-19T03:28:21;14.15;91.32
65836;SHT30;52595;51.608;7.216;2023-09-19T03:31:06;14.09;91.59
65836;SHT30;52595;51.608;7.216;2023-09-19T03:33:32;14.04;92.12
65836;SHT30;52595;51.608;7.216;2023-09-19T03:36:00;14.05;91.95
65836;SHT30;52595;51.608;7.216;2023-09-19T03:38:26;14.05;91.67
65836;SHT30;52595;51.608;7.216;2023-09-19T03:40:53;14.06;91.59
65836;SHT30;52595;51.608;7.216;2023-09-19T03:43:18;14.05;91.46
65836;SHT30;52595;51.608;7.216;2023-09-19T03:45:44;14.01;91.47
65836;SHT30;52595;51.608;7.216;2023-09-19T03:48:13;14.04;91.30
65836;SHT30;52595;51.608;7.216;2023-09-19T03:50:38;14.02;91.20
65836;SHT30;52595;51.608;7.216;2023-09-19T03:53:04;13.92;91.66
65836;SHT30;52595;51.608;7.216;2023-09-19T03:55:30;13.85;91.87
65836;SHT30;52595;51.608;7.216;2023-09-19T03:57:56;14.02;90.41
65836;SHT30;52595;51.608;7.216;2023-09-19T04:00:22;13.92;90.84
65836;SHT30;52595;51.608;7.216;2023-09-19T04:02:51;13.83;91.45
65836;SHT30;52595;51.608;7.216;2023-09-19T04:05:17;13.82;91.12
65836;SHT30;52595;51.608;7.216;2023-09-19T04:07:43;13.78;91.22
65836;SHT30;52595;51.608;7.216;2023-09-19T04:10:09;13.78;90.96
65836;SHT30;52595;51.608;7.216;2023-09-19T04:12:37;13.75;90.95
65836;SHT30;52595;51.608;7.216;2023-09-19T04:15:04;13.69;91.45
65836;SHT30;52595;51.608;7.216;2023-09-19T04:17:30;13.61;91.65
65836;SHT30;52595;51.608;7.216;2023-09-19T04:19:58;13.67;91.41
65836;SHT30;52595;51.608;7.216;2023-09-19T04:22:23;13.55;91.89
65836;SHT30;52595;51.608;7.216;2023-09-19T04:24:49;13.57;91.79
65836;SHT30;52595;51.608;7.216;2023-09-19T04:27:14;13.57;91.78
65836;SHT30;52595;51.608;7.216;2023-09-19T04:29:42;13.62;91.53
65836;SHT30;52595;51.608;7.216;2023-09-19T04:32:08;13.64;91.62
65836;SHT30;52595;51.608;7.216;2023-09-19T04:34:34;13.62;91.60
65836;SHT30;52595;51.608;7.216;2023-09-19T04:37:00;13.64;91.66
65836;SHT30;52595;51.608;7.216;2023-09-19T04:39:26;13.59;91.77
65836;SHT30;52595;51.608;7.216;2023-09-19T04:41:52;13.50;92.25
65836;SHT30;52595;51.608;7.216;2023-09-19T04:44:18;13.58;91.66
65836;SHT30;52595;51.608;7.216;2023-09-19T04:46:44;13.58;91.94
65836;SHT30;52595;51.608;7.216;2023-09-19T04:49:11;13.58;92.12
65836;SHT30;52595;51.608;7.216;2023-09-19T04:51:37;13.59;91.83
65836;SHT30;52595;51.608;7.216;2023-09-19T04:54:03;13.62;91.93
65836;SHT30;52595;51.608;7.216;2023-09-19T04:56:32;13.69;91.80
65836;SHT30;52595;51.608;7.216;2023-09-19T04:58:58;13.64;91.93
65836;SHT30;52595;51.608;7.216;2023-09-19T05:01:24;13.74;91.51
65836;SHT30;52595;51.608;7.216;2023-09-19T05:03:50;13.71;91.68
65836;SHT30;52595;51.608;7.216;2023-09-19T05:06:21;13.72;91.66
65836;SHT30;52595;51.608;7.216;2023-09-19T05:08:47;13.67;91.80
65836;SHT30;52595;51.608;7.216;2023-09-19T05:11:17;13.77;91.40
65836;SHT30;52595;51.608;7.216;2023-09-19T05:13:42;13.68;91.84
65836;SHT30;52595;51.608;7.216;2023-09-19T05:16:08;13.67;91.82
65836;SHT30;52595;51.608;7.216;2023-09-19T05:18:35;13.65;92.00
65836;SHT30;52595;51.608;7.216;2023-09-19T05:21:02;13.77;91.53
65836;SHT30;52595;51.608;7.216;2023-09-19T05:23:27;13.82;91.46
65836;SHT30;52595;51.608;7.216;2023-09-19T05:25:53;13.81;91.71
65836;SHT30;52595;51.608;7.216;2023-09-19T05:28:19;13.81;91.75
65836;SHT30;52595;51.608;7.216;2023-09-19T05:30:45;13.82;91.78
65836;SHT30;52595;51.608;7.216;2023-09-19T05:33:11;13.83;91.85
65836;SHT30;52595;51.608;7.216;2023-09-19T05:35:37;13.77;92.19
65836;SHT30;52595;51.608;7.216;2023-09-19T05:38:05;13.79;92.15
65836;SHT30;52595;51.608;7.216;2023-09-19T05:40:34;13.92;91.66
65836;SHT30;52595;51.608;7.216;2023-09-19T05:43:00;13.97;91.61
65836;SHT30;52595;51.608;7.216;2023-09-19T05:45:25;13.98;91.68
65836;SHT30;52595;51.608;7.216;2023-09-19T05:47:53;13.99;91.54
65836;SHT30;52595;51.608;7.216;2023-09-19T05:50:29;14.01;91.69
65836;SHT30;52595;51.608;7.216;2023-09-19T05:52:54;14.02;91.86
65836;SHT30;52595;51.608;7.216;2023-09-19T05:55:21;14.09;91.62
65836;SHT30;52595;51.608;7.216;2023-09-19T05:57:51;14.15;91.43
65836;SHT30;52595;51.608;7.216;2023-09-19T06:00:18;14.20;91.36
65836;SHT30;52595;51.608;7.216;2023-09-19T06:02:56;14.26;91.02
65836;SHT30;52595;51.608;7.216;2023-09-19T06:05:23;14.28;90.81
65836;SHT30;52595;51.608;7.216;2023-09-19T06:07:50;14.30;90.87
65836;SHT30;52595;51.608;7.216;2023-09-19T06:10:16;14.34;90.59
65836;SHT30;52595;51.608;7.216;2023-09-19T06:12:42;14.36;90.44
65836;SHT30;52595;51.608;7.216;2023-09-19T06:15:09;14.36;90.60
65836;SHT30;52595;51.608;7.216;2023-09-19T06:17:43;14.43;90.48
65836;SHT30;52595;51.608;7.216;2023-09-19T06:20:11;14.44;90.04
65836;SHT30;52595;51.608;7.216;2023-09-19T06:22:44;14.52;89.68
65836;SHT30;52595;51.608;7.216;2023-09-19T06:25:11;14.52;89.71
65836;SHT30;52595;51.608;7.216;2023-09-19T06:27:40;14.59;89.13
65836;SHT30;52595;51.608;7.216;2023-09-19T06:30:10;14.63;89.25
65836;SHT30;52595;51.608;7.216;2023-09-19T06:32:36;14.62;89.06
65836;SHT30;52595;51.608;7.216;2023-09-19T06:35:02;14.67;88.74
65836;SHT30;52595;51.608;7.216;2023-09-19T06:37:28;14.72;88.56
65836;SHT30;52595;51.608;7.216;2023-09-19T06:39:54;14.74;88.42
65836;SHT30;52595;51.608;7.216;2023-09-19T06:42:19;14.79;88.43
65836;SHT30;52595;51.608;7.216;2023-09-19T06:44:45;14.90;88.18
65836;SHT30;52595;51.608;7.216;2023-09-19T06:47:11;14.90;87.94
65836;SHT30;52595;51.608;7.216;2023-09-19T06:49:37;14.94;87.52
65836;SHT30;52595;51.608;7.216;2023-09-19T06:52:02;14.98;88.14
65836;SHT30;52595;51.608;7.216;2023-09-19T06:54:28;15.00;87.78
65836;SHT30;52595;51.608;7.216;2023-09-19T06:56:59;14.98;87.35
65836;SHT30;52595;51.608;7.216;2023-09-19T06:59:25;15.04;87.05
65836;SHT30;52595;51.608;7.216;2023-09-19T07:01:50;15.04;87.07
65836;SHT30;52595;51.608;7.216;2023-09-19T07:04:16;15.07;87.50
65836;SHT30;52595;51.608;7.216;2023-09-19T07:06:44;15.05;87.05
65836;SHT30;52595;51.608;7.216;2023-09-19T07:09:15;15.08;86.89
65836;SHT30;52595;51.608;7.216;2023-09-19T07:11:40;15.14;86.64
65836;SHT30;52595;51.608;7.216;2023-09-19T07:14:05;15.15;86.74
65836;SHT30;52595;51.608;7.216;2023-09-19T07:16:31;15.14;86.58
65836;SHT30;52595;51.608;7.216;2023-09-19T07:18:56;15.21;86.69
65836;SHT30;52595;51.608;7.216;2023-09-19T07:21:23;15.30;86.17
65836;SHT30;52595;51.608;7.216;2023-09-19T07:23:48;15.32;86.57
65836;SHT30;52595;51.608;7.216;2023-09-19T07:26:15;15.39;86.56
65836;SHT30;52595;51.608;7.216;2023-09-19T07:28:40;15.39;86.37
65836;SHT30;52595;51.608;7.216;2023-09-19T07:31:06;15.45;86.18
65836;SHT30;52595;51.608;7.216;2023-09-19T07:33:35;15.39;86.28
65836;SHT30;52595;51.608;7.216;2023-09-19T07:36:01;15.44;86.48
65836;SHT30;52595;51.608;7.216;2023-09-19T07:38:26;15.55;86.38
65836;SHT30;52595;51.608;7.216;2023-09-19T07:40:52;15.48;86.43
65836;SHT30;52595;51.608;7.216;2023-09-19T07:43:17;15.52;86.45
65836;SHT30;52595;51.608;7.216;2023-09-19T07:45:43;15.57;86.70
65836;SHT30;52595;51.608;7.216;2023-09-19T07:48:09;15.68;86.90
65836;SHT30;52595;51.608;7.216;2023-09-19T07:50:39;15.58;86.36
65836;SHT30;52595;51.608;7.216;2023-09-19T07:53:05;15.59;86.57
65836;SHT30;52595;51.608;7.216;2023-09-19T07:55:31;15.63;86.79
65836;SHT30;52595;51.608;7.216;2023-09-19T07:57:59;15.70;87.08
65836;SHT30;52595;51.608;7.216;2023-09-19T08:00:24;15.69;86.65
65836;SHT30;52595;51.608;7.216;2023-09-19T08:02:50;15.77;86.70
65836;SHT30;52595;51.608;7.216;2023-09-19T08:05:17;15.88;85.79
65836;SHT30;52595;51.608;7.216;2023-09-19T08:07:45;16.06;86.05
65836;SHT30;52595;51.608;7.216;2023-09-19T08:10:14;15.86;85.83
65836;SHT30;52595;51.608;7.216;2023-09-19T08:12:41;16.05;86.03
65836;SHT30;52595;51.608;7.216;2023-09-19T08:15:21;15.93;85.40
65836;SHT30;52595;51.608;7.216;2023-09-19T08:17:47;16.02;85.56
65836;SHT30;52595;51.608;7.216;2023-09-19T08:20:14;16.05;85.11
65836;SHT30;52595;51.608;7.216;2023-09-19T08:25:12;16.33;85.42
65836;SHT30;52595;51.608;7.216;2023-09-19T08:27:38;16.24;85.63
65836;SHT30;52595;51.608;7.216;2023-09-19T08:30:04;16.24;85.01
65836;SHT30;52595;51.608;7.216;2023-09-19T08:32:29;16.10;85.16
65836;SHT30;52595;51.608;7.216;2023-09-19T08:34:55;16.00;85.07
65836;SHT30;52595;51.608;7.216;2023-09-19T08:37:20;16.09;85.07
65836;SHT30;52595;51.608;7.216;2023-09-19T08:39:46;16.14;85.01
65836;SHT30;52595;51.608;7.216;2023-09-19T08:42:12;16.12;85.46
65836;SHT30;52595;51.608;7.216;2023-09-19T08:44:38;16.12;85.38
65836;SHT30;52595;51.608;7.216;2023-09-19T08:47:10;16.27;85.39
65836;SHT30;52595;51.608;7.216;2023-09-19T08:52:27;16.49;84.57
65836;SHT30;52595;51.608;7.216;2023-09-19T08:54:58;16.49;84.50
65836;SHT30;52595;51.608;7.216;2023-09-19T08:57:28;16.64;83.68
65836;SHT30;52595;51.608;7.216;2023-09-19T08:59:55;16.80;83.97
65836;SHT30;52595;51.608;7.216;2023-09-19T09:02:22;17.12;82.75
65836;SHT30;52595;51.608;7.216;2023-09-19T09:04:49;17.10;81.80
65836;SHT30;52595;51.608;7.216;2023-09-19T09:07:19;16.89;82.74
65836;SHT30;52595;51.608;7.216;2023-09-19T09:09:44;16.98;82.58
65836;SHT30;52595;51.608;7.216;2023-09-19T09:12:14;17.01;82.06
65836;SHT30;52595;51.608;7.216;2023-09-19T09:14:44;17.22;82.29
65836;SHT30;52595;51.608;7.216;2023-09-19T09:17:11;17.17;81.51
65836;SHT30;52595;51.608;7.216;2023-09-19T09:19:39;17.21;81.08
65836;SHT30;52595;51.608;7.216;2023-09-19T09:22:10;17.21;81.75
65836;SHT30;52595;51.608;7.216;2023-09-19T09:24:36;17.48;81.09
65836;SHT30;52595;51.608;7.216;2023-09-19T09:27:05;17.22;80.61
65836;SHT30;52595;51.608;7.216;2023-09-19T09:29:40;17.62;79.99
65836;SHT30;52595;51.608;7.216;2023-09-19T09:32:20;17.45;79.70
65836;SHT30;52595;51.608;7.216;2023-09-19T09:34:52;17.36;80.19
65836;SHT30;52595;51.608;7.216;2023-09-19T09:37:18;17.61;80.03
65836;SHT30;52595;51.608;7.216;2023-09-19T09:39:55;17.96;78.96
65836;SHT30;52595;51.608;7.216;2023-09-19T09:42:30;17.94;78.55
65836;SHT30;52595;51.608;7.216;2023-09-19T09:45:21;17.73;77.93
65836;SHT30;52595;51.608;7.216;2023-09-19T09:47:59;17.82;77.65
65836;SHT30;52595;51.608;7.216;2023-09-19T09:50:34;17.86;78.22
65836;SHT30;52595;51.608;7.216;2023-09-19T09:53:32;17.72;78.16
65836;SHT30;52595;51.608;7.216;2023-09-19T09:56:08;17.92;78.28
65836;SHT30;52595;51.608;7.216;2023-09-19T09:58:51;17.78;77.98
65836;SHT30;52595;51.608;7.216;2023-09-19T10:01:24;18.02;77.15
65836;SHT30;52595;51.608;7.216;2023-09-19T10:03:56;17.87;77.36
65836;SHT30;52595;51.608;7.216;2023-09-19T10:06:22;17.65;77.36
65836;SHT30;52595;51.608;7.216;2023-09-19T10:09:07;17.89;77.17
65836;SHT30;52595;51.608;7.216;2023-09-19T10:11:47;17.87;75.86
65836;SHT30;52595;51.608;7.216;2023-09-19T10:14:15;18.03;75.79
65836;SHT30;52595;51.608;7.216;2023-09-19T10:16:48;18.09;75.50
65836;SHT30;52595;51.608;7.216;2023-09-19T10:19:48;18.22;75.11
65836;SHT30;52595;51.608;7.216;2023-09-19T10:22:17;18.61;75.33
65836;SHT30;52595;51.608;7.216;2023-09-19T10:24:49;18.69;74.73
65836;SHT30;52595;51.608;7.216;2023-09-19T10:27:17;18.64;75.28
65836;SHT30;52595;51.608;7.216;2023-09-19T10:29:45;18.12;74.36
65836;SHT30;52595;51.608;7.216;2023-09-19T10:32:15;18.03;74.75
65836;SHT30;52595;51.608;7.216;2023-09-19T10:34:46;18.51;75.67
65836;SHT30;52595;51.608;7.216;2023-09-19T10:37:13;18.72;74.62
65836;SHT30;52595;51.608;7.216;2023-09-19T10:39:40;19.12;73.95
65836;SHT30;52595;51.608;7.216;2023-09-19T10:42:07;18.94;73.57
65836;SHT30;52595;51.608;7.216;2023-09-19T10:44:37;18.79;73.55
65836;SHT30;52595;51.608;7.216;2023-09-19T10:47:07;18.77;74.47
65836;SHT30;52595;51.608;7.216;2023-09-19T10:49:34;18.94;74.76
65836;SHT30;52595;51.608;7.216;2023-09-19T10:52:00;18.92;72.96
65836;SHT30;52595;51.608;7.216;2023-09-19T10:54:31;18.79;72.23
65836;SHT30;52595;51.608;7.216;2023-09-19T10:56:58;19.01;72.02
65836;SHT30;52595;51.608;7.216;2023-09-19T10:59:25;18.99;72.55
65836;SHT30;52595;51.608;7.216;2023-09-19T11:01:52;18.74;72.23
65836;SHT30;52595;51.608;7.216;2023-09-19T11:04:34;18.88;71.90
65836;SHT30;52595;51.608;7.216;2023-09-19T11:07:14;19.66;70.56
65836;SHT30;52595;51.608;7.216;2023-09-19T11:09:51;20.13;69.69
65836;SHT30;52595;51.608;7.216;2023-09-19T11:14:54;21.00;66.92
65836;SHT30;52595;51.608;7.216;2023-09-19T11:30:41;20.86;65.23
65836;SHT30;52595;51.608;7.216;2023-09-19T11:33:24;21.18;64.58
65836;SHT30;52595;51.608;7.216;2023-09-19T11:36:12;21.54;64.38
65836;SHT30;52595;51.608;7.216;2023-09-19T11:43:54;20.51;67.12
65836;SHT30;52595;51.608;7.216;2023-09-19T11:46:53;19.74;69.17
65836;SHT30;52595;51.608;7.216;2023-09-19T11:49:24;19.89;69.40
65836;SHT30;52595;51.608;7.216;2023-09-19T11:51:51;20.40;68.07
65836;SHT30;52595;51.608;7.216;2023-09-19T11:54:17;19.70;69.52
65836;SHT30;52595;51.608;7.216;2023-09-19T11:56:51;20.64;67.34
65836;SHT30;52595;51.608;7.216;2023-09-19T11:59:24;20.69;67.12
65836;SHT30;52595;51.608;7.216;2023-09-19T12:01:54;21.05;67.14
65836;SHT30;52595;51.608;7.216;2023-09-19T12:04:40;21.39;65.58
65836;SHT30;52595;51.608;7.216;2023-09-19T12:07:12;20.38;67.82
65836;SHT30;52595;51.608;7.216;2023-09-19T12:09:49;20.61;67.07
65836;SHT30;52595;51.608;7.216;2023-09-19T12:12:26;20.86;66.41
65836;SHT30;52595;51.608;7.216;2023-09-19T12:15:00;20.33;66.60
65836;SHT30;52595;51.608;7.216;2023-09-19T12:17:36;20.96;65.36
65836;SHT30;52595;51.608;7.216;2023-09-19T12:20:01;20.06;67.66
65836;SHT30;52595;51.608;7.216;2023-09-19T12:22:45;21.18;65.20
65836;SHT30;52595;51.608;7.216;2023-09-19T12:25:12;22.24;63.80
65836;SHT30;52595;51.608;7.216;2023-09-19T12:27:42;21.59;62.98
65836;SHT30;52595;51.608;7.216;2023-09-19T12:30:12;21.45;63.20
65836;SHT30;52595;51.608;7.216;2023-09-19T12:32:40;22.30;61.05
65836;SHT30;52595;51.608;7.216;2023-09-19T12:35:09;22.34;61.29
65836;SHT30;52595;51.608;7.216;2023-09-19T12:37:43;22.20;61.08
65836;SHT30;52595;51.608;7.216;2023-09-19T12:40:13;23.83;58.32
65836;SHT30;52595;51.608;7.216;2023-09-19T12:42:48;22.64;59.86
65836;SHT30;52595;51.608;7.216;2023-09-19T12:45:15;22.13;60.28
65836;SHT30;52595;51.608;7.216;2023-09-19T12:51:12;21.80;61.10
65836;SHT30;52595;51.608;7.216;2023-09-19T12:53:45;21.81;60.18
65836;SHT30;52595;51.608;7.216;2023-09-19T12:56:17;23.39;58.07
65836;SHT30;52595;51.608;7.216;2023-09-19T12:58:56;24.71;55.50
65836;SHT30;52595;51.608;7.216;2023-09-19T13:01:24;24.45;56.36
65836;SHT30;52595;51.608;7.216;2023-09-19T13:06:59;23.03;57.33
65836;SHT30;52595;51.608;7.216;2023-09-19T13:09:26;22.17;58.70
65836;SHT30;52595;51.608;7.216;2023-09-19T13:12:00;22.28;58.77
65836;SHT30;52595;51.608;7.216;2023-09-19T13:14:28;21.73;59.74
65836;SHT30;52595;51.608;7.216;2023-09-19T13:22:39;23.06;56.80
65836;SHT30;52595;51.608;7.216;2023-09-19T13:25:09;23.31;56.81
65836;SHT30;52595;51.608;7.216;2023-09-19T13:27:40;23.00;56.75
65836;SHT30;52595;51.608;7.216;2023-09-19T13:30:07;22.66;58.39
65836;SHT30;52595;51.608;7.216;2023-09-19T13:32:32;22.92;57.30
65836;SHT30;52595;51.608;7.216;2023-09-19T13:34:58;23.15;56.70
65836;SHT30;52595;51.608;7.216;2023-09-19T13:37:23;22.14;58.54
65836;SHT30;52595;51.608;7.216;2023-09-19T13:39:49;22.49;58.72
65836;SHT30;52595;51.608;7.216;2023-09-19T13:42:14;22.52;58.75
65836;SHT30;52595;51.608;7.216;2023-09-19T13:44:41;22.13;58.60
65836;SHT30;52595;51.608;7.216;2023-09-19T13:47:07;22.00;60.58
65836;SHT30;52595;51.608;7.216;2023-09-19T13:49:38;21.71;60.88
65836;SHT30;52595;51.608;7.216;2023-09-19T13:52:04;22.55;59.12
65836;SHT30;52595;51.608;7.216;2023-09-19T13:54:30;21.42;61.15
65836;SHT30;52595;51.608;7.216;2023-09-19T13:56:55;21.32;61.31
65836;SHT30;52595;51.608;7.216;2023-09-19T13:59:21;20.85;63.24
65836;SHT30;52595;51.608;7.216;2023-09-19T14:01:49;20.99;61.99
65836;SHT30;52595;51.608;7.216;2023-09-19T14:04:14;20.78;63.26
65836;SHT30;52595;51.608;7.216;2023-09-19T14:06:42;20.40;63.97
65836;SHT30;52595;51.608;7.216;2023-09-19T14:09:07;20.33;64.65
65836;SHT30;52595;51.608;7.216;2023-09-19T14:11:33;20.17;65.04
65836;SHT30;52595;51.608;7.216;2023-09-19T14:13:59;20.25;65.28
65836;SHT30;52595;51.608;7.216;2023-09-19T14:16:25;20.21;65.11
65836;SHT30;52595;51.608;7.216;2023-09-19T14:18:55;19.97;66.06
65836;SHT30;52595;51.608;7.216;2023-09-19T14:21:20;19.98;66.04
65836;SHT30;52595;51.608;7.216;2023-09-19T14:23:46;19.80;67.17
65836;SHT30;52595;51.608;7.216;2023-09-19T14:26:12;19.83;66.80
65836;SHT30;52595;51.608;7.216;2023-09-19T14:28:37;19.86;67.28
65836;SHT30;52595;51.608;7.216;2023-09-19T14:31:11;19.74;67.10
65836;SHT30;52595;51.608;7.216;2023-09-19T14:33:37;19.63;67.19
65836;SHT30;52595;51.608;7.216;2023-09-19T14:36:08;19.58;67.35
65836;SHT30;52595;51.608;7.216;2023-09-19T14:38:36;19.52;68.27
65836;SHT30;52595;51.608;7.216;2023-09-19T14:41:03;19.49;68.14
65836;SHT30;52595;51.608;7.216;2023-09-19T14:43:28;19.49;67.98
65836;SHT30;52595;51.608;7.216;2023-09-19T14:46:02;19.56;68.52
65836;SHT30;52595;51.608;7.216;2023-09-19T14:48:27;19.55;68.35
65836;SHT30;52595;51.608;7.216;2023-09-19T14:50:53;19.55;69.28
65836;SHT30;52595;51.608;7.216;2023-09-19T14:53:20;19.45;68.63
65836;SHT30;52595;51.608;7.216;2023-09-19T14:55:46;19.39;68.97
65836;SHT30;52595;51.608;7.216;2023-09-19T14:58:13;19.45;69.11
65836;SHT30;52595;51.608;7.216;2023-09-19T15:00:41;19.29;68.95
65836;SHT30;52595;51.608;7.216;2023-09-19T15:03:10;19.43;69.11
65836;SHT30;52595;51.608;7.216;2023-09-19T15:05:36;19.55;68.75
65836;SHT30;52595;51.608;7.216;2023-09-19T15:08:02;19.58;68.41
65836;SHT30;52595;51.608;7.216;2023-09-19T15:10:28;19.59;68.37
65836;SHT30;52595;51.608;7.216;2023-09-19T15:12:53;19.65;68.80
65836;SHT30;52595;51.608;7.216;2023-09-19T15:15:18;19.58;68.55
65836;SHT30;52595;51.608;7.216;2023-09-19T15:17:44;19.50;69.16
65836;SHT30;52595;51.608;7.216;2023-09-19T15:20:10;19.63;69.19
65836;SHT30;52595;51.608;7.216;2023-09-19T15:22:39;19.58;69.14
65836;SHT30;52595;51.608;7.216;2023-09-19T15:25:04;19.67;69.18
65836;SHT30;52595;51.608;7.216;2023-09-19T15:27:31;19.48;69.11
65836;SHT30;52595;51.608;7.216;2023-09-19T15:30:00;19.58;69.64
65836;SHT30;52595;51.608;7.216;2023-09-19T15:32:30;19.74;68.93
65836;SHT30;52595;51.608;7.216;2023-09-19T15:34:55;19.65;69.31
65836;SHT30;52595;51.608;7.216;2023-09-19T15:37:21;19.58;69.32
65836;SHT30;52595;51.608;7.216;2023-09-19T15:39:47;19.94;69.01
65836;SHT30;52595;51.608;7.216;2023-09-19T15:42:13;20.35;67.40
65836;SHT30;52595;51.608;7.216;2023-09-19T15:44:38;20.04;67.95
65836;SHT30;52595;51.608;7.216;2023-09-19T15:47:04;20.59;67.24
65836;SHT30;52595;51.608;7.216;2023-09-19T15:49:30;20.69;66.61
65836;SHT30;52595;51.608;7.216;2023-09-19T15:51:56;20.10;68.31
65836;SHT30;52595;51.608;7.216;2023-09-19T15:54:21;19.83;68.85
65836;SHT30;52595;51.608;7.216;2023-09-19T15:56:47;19.90;68.49
65836;SHT30;52595;51.608;7.216;2023-09-19T15:59:14;20.01;68.84
65836;SHT30;52595;51.608;7.216;2023-09-19T16:01:40;19.69;68.91
65836;SHT30;52595;51.608;7.216;2023-09-19T16:04:07;19.63;69.72
65836;SHT30;52595;51.608;7.216;2023-09-19T16:06:34;19.50;69.37
65836;SHT30;52595;51.608;7.216;2023-09-19T16:08:59;19.38;69.76
65836;SHT30;52595;51.608;7.216;2023-09-19T16:11:29;19.28;69.77
65836;SHT30;52595;51.608;7.216;2023-09-19T16:13:55;19.26;69.80
65836;SHT30;52595;51.608;7.216;2023-09-19T16:16:21;19.25;70.25
65836;SHT30;52595;51.608;7.216;2023-09-19T16:18:53;19.22;70.24